createdAt,value
2022-09-28T00:01:07.841Z,11.03
2022-09-28T00:03:34.376Z,10.48
2022-09-28T00:06:01.930Z,10.47
2022-09-28T00:08:29.035Z,10.33
2022-09-28T00:10:55.744Z,10.70
2022-09-28T00:13:22.147Z,10.69
2022-09-28T00:15:59.000Z,10.74
2022-09-28T00:18:25.352Z,10.54
2022-09-28T00:20:59.890Z,10.55
2022-09-28T00:23:26.384Z,10.32
2022-09-28T00:25:54.039Z,10.37
2022-09-28T00:28:20.867Z,10.83
2022-09-28T00:30:47.294Z,10.56
2022-09-28T00:33:15.039Z,10.64
2022-09-28T00:35:41.424Z,10.22
2022-09-28T00:38:07.788Z,10.31
2022-09-28T00:40:34.491Z,10.05
2022-09-28T00:43:16.916Z,10.36
2022-09-28T00:45:43.500Z,10.42
2022-09-28T00:48:11.203Z,10.30
2022-09-28T00:50:39.511Z,10.18
2022-09-28T00:53:11.028Z,10.25
2022-09-28T00:55:42.765Z,10.18
2022-09-28T00:58:12.721Z,10.35
2022-09-28T01:00:39.751Z,10.43
2022-09-28T01:03:07.154Z,10.35
2022-09-28T01:05:34.172Z,9.96
2022-09-28T01:08:03.212Z,10.36
2022-09-28T01:10:31.230Z,10.12
2022-09-28T01:12:57.803Z,10.34
2022-09-28T01:15:27.657Z,10.30
2022-09-28T01:18:08.684Z,10.51
2022-09-28T01:20:54.311Z,10.77
2022-09-28T01:23:49.749Z,10.77
2022-09-28T01:26:47.675Z,10.52
2022-09-28T01:29:21.513Z,10.45
2022-09-28T01:31:52.656Z,10.86
2022-09-28T01:34:24.819Z,10.97
2022-09-28T01:36:55.826Z,10.75
2022-09-28T01:39:29.692Z,10.40
2022-09-28T01:42:03.065Z,10.87
2022-09-28T01:44:32.832Z,10.86
2022-09-28T01:47:00.973Z,11.08
2022-09-28T01:49:31.544Z,10.95
2022-09-28T01:52:02.227Z,11.22
2022-09-28T01:54:34.765Z,11.09
2022-09-28T01:57:10.804Z,11.11
2022-09-28T01:59:40.668Z,11.21
2022-09-28T02:02:11.048Z,11.06
2022-09-28T02:04:44.578Z,11.21
2022-09-28T02:07:16.479Z,11.13
2022-09-28T02:09:46.289Z,10.96
2022-09-28T02:12:20.369Z,11.01
2022-09-28T02:14:49.834Z,10.88
2022-09-28T02:17:16.397Z,10.87
2022-09-28T02:19:44.203Z,10.71
2022-09-28T02:22:23.056Z,10.81
2022-09-28T02:24:55.468Z,10.74
2022-09-28T02:27:33.596Z,10.72
2022-09-28T02:30:00.320Z,10.76
2022-09-28T02:32:28.670Z,10.84
2022-09-28T02:34:55.629Z,10.82
2022-09-28T02:37:22.261Z,10.77
2022-09-28T02:39:48.696Z,11.05
2022-09-28T02:42:20.707Z,11.12
2022-09-28T02:45:03.984Z,10.73
2022-09-28T02:47:46.489Z,10.49
2022-09-28T02:50:19.687Z,10.89
2022-09-28T02:53:07.854Z,10.86
2022-09-28T02:55:47.583Z,10.70
2022-09-28T02:58:22.018Z,10.73
2022-09-28T03:01:00.386Z,11.00
2022-09-28T03:03:38.116Z,10.89
2022-09-28T03:06:11.046Z,10.59
2022-09-28T03:08:42.562Z,10.75
2022-09-28T03:11:16.197Z,10.66
2022-09-28T03:13:42.881Z,10.77
2022-09-28T03:16:13.151Z,10.47
2022-09-28T03:18:39.893Z,10.37
2022-09-28T03:21:07.010Z,10.76
2022-09-28T03:23:33.648Z,10.62
2022-09-28T03:26:00.300Z,10.67
2022-09-28T03:28:26.665Z,10.40
2022-09-28T03:30:53.038Z,10.36
2022-09-28T03:33:20.839Z,10.16
2022-09-28T03:35:47.659Z,10.39
2022-09-28T03:38:14.077Z,10.34
2022-09-28T03:40:40.468Z,10.89
2022-09-28T03:43:06.897Z,10.77
2022-09-28T03:45:33.590Z,10.45
2022-09-28T03:48:00.244Z,10.40
2022-09-28T03:50:27.943Z,10.49
2022-09-28T03:52:54.304Z,10.12
2022-09-28T03:55:20.678Z,10.56
2022-09-28T03:57:53.444Z,10.30
2022-09-28T04:00:20.328Z,10.41
2022-09-28T04:02:46.742Z,10.26
2022-09-28T04:05:13.298Z,10.84
2022-09-28T04:07:41.000Z,10.21
2022-09-28T04:10:08.609Z,10.78
2022-09-28T04:12:34.950Z,10.52
2022-09-28T04:15:01.380Z,10.80
2022-09-28T04:17:27.733Z,10.36
2022-09-28T04:19:54.095Z,10.51
2022-09-28T04:22:20.451Z,9.85
2022-09-28T04:24:48.121Z,9.87
2022-09-28T04:27:15.070Z,9.61
2022-09-28T04:29:41.420Z,9.31
2022-09-28T04:32:07.828Z,9.49
2022-09-28T04:34:37.141Z,9.61
2022-09-28T04:37:05.170Z,9.85
2022-09-28T04:39:31.636Z,9.68
2022-09-28T04:41:59.335Z,9.55
2022-09-28T04:44:25.680Z,9.64
2022-09-28T04:46:52.068Z,9.60
2022-09-28T04:49:18.649Z,9.43
2022-09-28T04:51:45.156Z,9.52
2022-09-28T04:54:11.488Z,9.32
2022-09-28T04:56:37.874Z,9.45
2022-09-28T04:59:05.861Z,9.42
2022-09-28T05:01:32.297Z,9.20
2022-09-28T05:03:58.944Z,9.37
2022-09-28T05:06:25.310Z,9.26
2022-09-28T05:08:51.638Z,9.25
2022-09-28T05:11:17.978Z,9.48
2022-09-28T05:13:45.224Z,9.30
2022-09-28T05:16:14.608Z,9.43
2022-09-28T05:18:41.501Z,9.46
2022-09-28T05:21:10.153Z,9.42
2022-09-28T05:23:36.569Z,9.72
2022-09-28T05:26:02.977Z,9.55
2022-09-28T05:28:31.780Z,9.73
2022-09-28T05:30:59.040Z,9.71
2022-09-28T05:33:27.586Z,9.67
2022-09-28T05:35:56.866Z,9.68
2022-09-28T05:38:25.575Z,9.43
2022-09-28T05:40:52.190Z,9.75
2022-09-28T05:43:18.651Z,9.91
2022-09-28T05:45:45.136Z,10.04
2022-09-28T05:48:11.693Z,9.61
2022-09-28T05:50:39.484Z,9.60
2022-09-28T05:53:07.774Z,9.65
2022-09-28T05:55:35.018Z,9.81
2022-09-28T05:58:03.138Z,9.73
2022-09-28T06:00:30.887Z,9.40
2022-09-28T06:02:58.923Z,9.89
2022-09-28T06:05:25.458Z,9.50
2022-09-28T06:07:55.704Z,9.74
2022-09-28T06:10:22.136Z,9.45
2022-09-28T06:12:52.331Z,9.74
2022-09-28T06:15:18.713Z,9.77
2022-09-28T06:17:45.059Z,10.02
2022-09-28T06:20:11.813Z,10.86
2022-09-28T06:22:38.347Z,10.01
2022-09-28T06:25:07.569Z,10.04
2022-09-28T06:27:34.084Z,10.17
2022-09-28T06:30:00.762Z,10.33
2022-09-28T06:32:27.129Z,10.32
2022-09-28T06:34:56.293Z,10.44
2022-09-28T06:37:22.940Z,10.12
2022-09-28T06:39:49.389Z,9.92
2022-09-28T06:42:17.045Z,10.13
2022-09-28T06:44:43.382Z,10.10
2022-09-28T06:47:09.744Z,10.08
2022-09-28T06:49:36.217Z,10.17
2022-09-28T06:52:02.597Z,10.66
2022-09-28T06:54:28.996Z,11.26
2022-09-28T06:56:55.338Z,11.00
2022-09-28T06:59:23.019Z,10.52
2022-09-28T07:01:49.386Z,10.57
2022-09-28T07:04:15.770Z,10.52
2022-09-28T07:06:46.740Z,11.35
2022-09-28T07:09:30.837Z,11.54
2022-09-28T07:11:59.245Z,11.32
2022-09-28T07:14:45.687Z,10.80
2022-09-28T07:17:14.601Z,11.61
2022-09-28T07:19:41.384Z,11.26
2022-09-28T07:22:07.943Z,11.70
2022-09-28T07:24:34.339Z,11.81
2022-09-28T07:27:00.691Z,11.89
2022-09-28T07:29:28.370Z,11.85
2022-09-28T07:31:54.811Z,11.84
2022-09-28T07:34:21.176Z,12.00
2022-09-28T07:36:47.508Z,11.90
2022-09-28T07:39:13.851Z,11.90
2022-09-28T07:41:40.302Z,11.91
2022-09-28T07:44:06.889Z,11.91
2022-09-28T07:46:35.380Z,11.33
2022-09-28T07:49:02.031Z,11.75
2022-09-28T07:51:28.403Z,11.39
2022-09-28T07:53:54.731Z,11.27
2022-09-28T07:56:21.140Z,11.03
2022-09-28T07:58:48.181Z,10.87
2022-09-28T08:01:14.632Z,11.37
2022-09-28T08:03:43.801Z,11.22
2022-09-28T08:06:10.632Z,10.81
2022-09-28T08:08:37.297Z,10.79
2022-09-28T08:11:06.139Z,11.36
2022-09-28T08:13:32.489Z,10.85
2022-09-28T08:16:01.546Z,10.92
2022-09-28T08:18:28.024Z,11.22
2022-09-28T08:20:55.683Z,10.61
2022-09-28T08:23:22.056Z,11.23
2022-09-28T08:25:49.559Z,11.33
2022-09-28T08:28:16.759Z,10.93
2022-09-28T08:30:44.488Z,11.29
2022-09-28T08:33:11.098Z,11.44
2022-09-28T08:35:37.594Z,11.27
2022-09-28T08:38:05.361Z,11.31
2022-09-28T08:40:35.020Z,10.45
2022-09-28T08:43:06.264Z,11.11
2022-09-28T08:45:33.187Z,11.48
2022-09-28T08:48:05.991Z,11.87
2022-09-28T08:50:34.044Z,11.14
2022-09-28T08:53:13.297Z,11.75
2022-09-28T08:55:42.771Z,11.92
2022-09-28T08:58:13.091Z,11.67
2022-09-28T09:00:45.423Z,11.79
2022-09-28T09:03:14.880Z,12.03
2022-09-28T09:05:51.428Z,11.51
2022-09-28T09:08:34.642Z,12.04
2022-09-28T09:11:10.398Z,12.00
2022-09-28T09:14:14.384Z,11.84
2022-09-28T09:16:53.232Z,11.60
2022-09-28T09:19:33.727Z,11.15
2022-09-28T09:22:10.326Z,11.21
2022-09-28T09:24:46.539Z,11.80
2022-09-28T09:27:27.422Z,11.64
2022-09-28T09:30:04.379Z,11.73
2022-09-28T09:32:47.313Z,12.07
2022-09-28T09:35:30.448Z,11.65
2022-09-28T09:38:13.368Z,12.30
2022-09-28T09:40:56.493Z,12.37
2022-09-28T09:43:40.215Z,12.38
2022-09-28T09:46:16.593Z,11.78
2022-09-28T09:48:49.492Z,12.03
2022-09-28T09:51:22.443Z,12.79
2022-09-28T09:53:51.251Z,12.45
2022-09-28T09:56:26.994Z,12.36
2022-09-28T09:58:57.880Z,12.84
2022-09-28T10:01:32.192Z,12.80
2022-09-28T10:03:59.613Z,12.87
2022-09-28T10:06:31.997Z,13.01
2022-09-28T10:09:03.789Z,12.96
2022-09-28T10:11:36.640Z,13.17
2022-09-28T10:14:03.120Z,12.66
2022-09-28T10:16:36.342Z,12.48
2022-09-28T10:19:02.847Z,12.82
2022-09-28T10:21:30.088Z,12.83
2022-09-28T10:23:58.259Z,12.93
2022-09-28T10:26:29.945Z,12.80
2022-09-28T10:29:01.768Z,12.43
2022-09-28T10:31:39.673Z,12.41
2022-09-28T10:34:07.543Z,12.40
2022-09-28T10:36:45.982Z,12.52
2022-09-28T10:39:25.611Z,12.68
2022-09-28T10:41:52.371Z,12.44
2022-09-28T10:44:21.855Z,12.67
2022-09-28T10:46:56.306Z,12.58
2022-09-28T10:49:24.811Z,12.45
2022-09-28T10:51:53.033Z,12.04
2022-09-28T10:54:21.740Z,12.41
2022-09-28T10:56:49.620Z,12.21
2022-09-28T10:59:38.645Z,12.21
2022-09-28T11:02:19.983Z,12.50
2022-09-28T11:04:52.829Z,12.55
2022-09-28T11:07:22.248Z,12.81
2022-09-28T11:09:49.631Z,12.84
2022-09-28T11:12:19.344Z,12.74
2022-09-28T11:14:48.450Z,12.65
2022-09-28T11:17:16.152Z,12.83
2022-09-28T11:19:42.840Z,12.93
2022-09-28T11:22:20.792Z,12.90
2022-09-28T11:24:47.834Z,12.86
2022-09-28T11:27:21.312Z,12.94
2022-09-28T11:29:56.551Z,12.73
2022-09-28T11:32:24.957Z,12.86
2022-09-28T11:34:59.484Z,12.77
2022-09-28T11:37:49.342Z,12.94
2022-09-28T11:40:29.244Z,12.87
2022-09-28T11:43:07.805Z,12.87
2022-09-28T11:45:47.133Z,12.98
2022-09-28T11:48:15.872Z,13.08
2022-09-28T11:50:48.046Z,13.06
2022-09-28T11:53:25.414Z,13.42
2022-09-28T11:55:57.898Z,12.53
2022-09-28T11:58:29.160Z,13.15
2022-09-28T12:01:01.694Z,13.02
2022-09-28T12:03:34.708Z,12.85
2022-09-28T12:06:05.597Z,13.01
2022-09-28T12:08:35.271Z,11.84
2022-09-28T12:11:07.110Z,12.94
2022-09-28T12:13:37.273Z,13.27
2022-09-28T12:19:02.160Z,12.15
2022-09-28T12:21:37.050Z,12.44
2022-09-28T12:24:11.929Z,12.57
2022-09-28T12:26:43.573Z,12.25
2022-09-28T12:29:14.133Z,12.79
2022-09-28T12:31:58.289Z,12.18
2022-09-28T12:34:24.820Z,12.10
2022-09-28T12:37:05.354Z,12.96
2022-09-28T12:39:57.604Z,13.62
2022-09-28T12:42:37.959Z,13.13
2022-09-28T12:45:43.010Z,13.67
2022-09-28T12:48:36.217Z,13.55
2022-09-28T12:51:15.638Z,12.89
2022-09-28T12:54:01.246Z,13.15
2022-09-28T12:56:38.921Z,13.50
2022-09-28T12:59:18.694Z,12.86
2022-09-28T13:02:19.503Z,13.40
2022-09-28T13:04:59.446Z,13.94
2022-09-28T13:07:36.208Z,13.41
2022-09-28T13:10:12.110Z,13.44
2022-09-28T13:12:51.166Z,13.19
2022-09-28T13:15:34.882Z,13.79
2022-09-28T13:18:08.415Z,12.80
2022-09-28T13:20:46.247Z,13.21
2022-09-28T13:23:18.577Z,13.42
2022-09-28T13:25:50.688Z,13.39
2022-09-28T13:28:21.294Z,13.62
2022-09-28T13:30:51.285Z,13.31
2022-09-28T13:33:25.703Z,13.01
2022-09-28T13:35:53.447Z,13.24
2022-09-28T13:38:46.405Z,13.12
2022-09-28T13:41:19.759Z,13.34
2022-09-28T13:44:01.485Z,13.36
2022-09-28T13:46:38.071Z,12.87
2022-09-28T13:49:14.937Z,13.23
2022-09-28T13:51:58.322Z,13.23
2022-09-28T13:54:41.629Z,13.17
2022-09-28T13:57:17.492Z,12.83
2022-09-28T13:59:54.247Z,13.07
2022-09-28T14:02:31.306Z,13.23
2022-09-28T14:05:00.203Z,13.16
2022-09-28T14:07:57.270Z,13.24
2022-09-28T14:10:46.674Z,13.23
2022-09-28T14:13:13.165Z,13.53
2022-09-28T14:15:45.222Z,13.21
2022-09-28T14:18:22.485Z,12.79
2022-09-28T14:21:00.146Z,13.25
2022-09-28T14:23:43.367Z,12.90
2022-09-28T14:26:31.180Z,12.49
2022-09-28T14:29:11.565Z,13.23
2022-09-28T14:31:41.760Z,13.49
2022-09-28T14:34:24.412Z,13.41
2022-09-28T14:36:51.297Z,13.36
2022-09-28T14:39:27.834Z,13.14
2022-09-28T14:41:54.509Z,13.09
2022-09-28T14:44:20.840Z,12.68
2022-09-28T14:46:48.316Z,13.18
2022-09-28T14:49:44.224Z,12.55
2022-09-28T14:52:12.196Z,12.90
2022-09-28T14:54:45.024Z,13.12
2022-09-28T14:57:16.765Z,12.77
2022-09-28T14:59:44.513Z,12.69
2022-09-28T15:02:18.615Z,12.66
2022-09-28T15:04:48.355Z,12.96
2022-09-28T15:07:20.510Z,12.95
2022-09-28T15:09:50.130Z,12.85
2022-09-28T15:12:18.669Z,12.90
2022-09-28T15:14:47.680Z,13.16
2022-09-28T15:17:21.005Z,12.84
2022-09-28T15:19:58.892Z,12.93
2022-09-28T15:22:25.333Z,12.72
2022-09-28T15:25:02.043Z,13.03
2022-09-28T15:27:34.807Z,13.14
2022-09-28T15:30:15.854Z,12.97
2022-09-28T15:32:42.216Z,12.95
2022-09-28T15:35:13.308Z,13.12
2022-09-28T15:37:40.800Z,13.24
2022-09-28T15:40:15.153Z,13.23
2022-09-28T15:42:41.514Z,12.78
2022-09-28T15:45:23.122Z,13.11
2022-09-28T15:47:49.510Z,13.02
2022-09-28T15:50:22.493Z,13.23
2022-09-28T15:52:54.775Z,12.94
2022-09-28T15:55:25.526Z,12.82
2022-09-28T15:58:06.044Z,12.94
2022-09-28T16:00:32.463Z,13.04
2022-09-28T16:03:00.807Z,12.86
2022-09-28T16:05:33.591Z,13.11
2022-09-28T16:08:02.369Z,13.17
2022-09-28T16:10:32.857Z,13.17
2022-09-28T16:13:14.429Z,13.03
2022-09-28T16:15:41.137Z,13.04
2022-09-28T16:18:16.443Z,12.73
2022-09-28T16:20:42.923Z,13.06
2022-09-28T16:23:22.461Z,12.95
2022-09-28T16:25:52.700Z,12.98
2022-09-28T16:28:46.155Z,12.49
2022-09-28T16:31:24.908Z,12.50
2022-09-28T16:33:53.959Z,12.61
2022-09-28T16:36:21.438Z,12.81
2022-09-28T16:38:49.127Z,12.75
2022-09-28T16:41:19.626Z,12.85
2022-09-28T16:43:46.320Z,12.99
2022-09-28T16:46:15.404Z,12.70
2022-09-28T16:48:44.063Z,12.85
2022-09-28T16:51:10.390Z,12.45
2022-09-28T16:53:36.737Z,12.60
2022-09-28T16:56:04.188Z,12.75
2022-09-28T16:58:31.946Z,12.80
2022-09-28T17:00:59.064Z,12.57
2022-09-28T17:03:26.590Z,12.27
2022-09-28T17:05:54.109Z,12.44
2022-09-28T17:08:22.841Z,12.15
2022-09-28T17:11:13.131Z,12.41
2022-09-28T17:13:40.247Z,12.10
2022-09-28T17:16:11.230Z,12.25
2022-09-28T17:18:38.036Z,12.26
2022-09-28T17:21:06.250Z,12.33
2022-09-28T17:23:32.645Z,12.08
2022-09-28T17:26:00.868Z,11.87
2022-09-28T17:28:30.854Z,11.88
2022-09-28T17:30:58.650Z,11.79
2022-09-28T17:33:25.375Z,11.86
2022-09-28T17:35:57.509Z,12.01
2022-09-28T17:38:23.948Z,11.80
2022-09-28T17:40:50.337Z,11.50
2022-09-28T17:43:16.740Z,11.23
2022-09-28T17:45:46.056Z,11.67
2022-09-28T17:48:15.387Z,11.62
2022-09-28T17:50:46.294Z,11.80
2022-09-28T17:53:13.693Z,11.77
2022-09-28T17:55:40.336Z,11.89
2022-09-28T17:58:15.227Z,11.67
2022-09-28T18:00:41.624Z,12.05
2022-09-28T18:03:12.988Z,11.44
2022-09-28T18:05:41.387Z,11.99
2022-09-28T18:08:09.591Z,12.21
2022-09-28T18:10:36.036Z,12.21
2022-09-28T18:13:02.470Z,12.40
2022-09-28T18:15:28.942Z,12.23
2022-09-28T18:17:55.466Z,12.23
2022-09-28T18:20:22.117Z,12.28
2022-09-28T18:22:49.898Z,12.00
2022-09-28T18:25:16.567Z,11.95
2022-09-28T18:27:43.018Z,11.70
2022-09-28T18:30:10.333Z,11.91
2022-09-28T18:32:36.964Z,11.86
2022-09-28T18:35:03.695Z,11.88
2022-09-28T18:37:30.196Z,11.45
2022-09-28T18:39:57.950Z,11.46
2022-09-28T18:42:24.427Z,11.28
2022-09-28T18:44:50.981Z,11.51
2022-09-28T18:47:17.369Z,11.30
2022-09-28T18:49:46.679Z,11.23
2022-09-28T18:52:13.354Z,11.08
2022-09-28T18:54:39.725Z,11.39
2022-09-28T18:57:07.447Z,11.04
2022-09-28T18:59:34.069Z,11.18
2022-09-28T19:02:00.705Z,11.05
2022-09-28T19:04:27.321Z,11.07
2022-09-28T19:06:53.818Z,11.12
2022-09-28T19:09:22.491Z,11.12
2022-09-28T19:11:49.283Z,11.45
2022-09-28T19:14:17.034Z,11.39
2022-09-28T19:16:44.490Z,11.31
2022-09-28T19:19:13.988Z,11.47
2022-09-28T19:21:41.025Z,11.54
2022-09-28T19:24:07.485Z,11.15
2022-09-28T19:26:34.240Z,11.59
2022-09-28T19:29:01.267Z,11.62
2022-09-28T19:31:29.145Z,11.65
2022-09-28T19:33:55.582Z,11.79
2022-09-28T19:36:24.600Z,11.58
2022-09-28T19:38:52.433Z,11.77
2022-09-28T19:41:20.833Z,11.78
2022-09-28T19:43:47.224Z,11.50
2022-09-28T19:46:13.689Z,11.39
2022-09-28T19:48:41.470Z,11.59
2022-09-28T19:51:07.945Z,11.81
2022-09-28T19:53:36.188Z,11.99
2022-09-28T19:56:03.715Z,11.82
2022-09-28T19:58:33.020Z,11.31
2022-09-28T20:00:59.772Z,11.43
2022-09-28T20:03:26.464Z,11.24
2022-09-28T20:05:58.367Z,11.17
2022-09-28T20:08:24.796Z,11.73
2022-09-28T20:10:51.553Z,11.03
2022-09-28T20:13:18.003Z,11.05
2022-09-28T20:15:44.825Z,11.17
2022-09-28T20:18:11.333Z,11.66
2022-09-28T20:20:38.025Z,11.52
2022-09-28T20:23:05.765Z,11.39
2022-09-28T20:25:32.313Z,11.73
2022-09-28T20:27:58.704Z,11.75
2022-09-28T20:30:25.128Z,11.48
2022-09-28T20:32:51.578Z,11.27
2022-09-28T20:35:30.360Z,11.07
2022-09-28T20:37:56.995Z,11.15
2022-09-28T20:40:24.836Z,11.03
2022-09-28T20:42:51.288Z,10.65
2022-09-28T20:45:17.705Z,10.87
2022-09-28T20:47:44.091Z,10.59
2022-09-28T20:50:10.497Z,11.02
2022-09-28T20:52:36.909Z,10.91
2022-09-28T20:55:03.490Z,10.88
2022-09-28T20:57:31.223Z,10.99
2022-09-28T20:59:57.625Z,10.79
2022-09-28T21:02:24.054Z,11.10
2022-09-28T21:04:50.600Z,11.05
2022-09-28T21:07:17.093Z,10.55
2022-09-28T21:09:43.562Z,10.22
2022-09-28T21:12:09.967Z,10.45
2022-09-28T21:14:37.718Z,10.82
2022-09-28T21:17:04.130Z,10.85
2022-09-28T21:19:30.534Z,10.47
2022-09-28T21:21:56.991Z,10.45
2022-09-28T21:24:23.457Z,10.52
2022-09-28T21:26:49.847Z,10.49
2022-09-28T21:29:16.754Z,10.59
2022-09-28T21:31:46.246Z,10.58
2022-09-28T21:34:14.196Z,10.55
2022-09-28T21:36:41.048Z,10.67
2022-09-28T21:39:10.390Z,10.60
2022-09-28T21:41:37.359Z,10.95
2022-09-28T21:44:03.843Z,11.02
2022-09-28T21:46:30.309Z,11.30
2022-09-28T21:48:58.079Z,11.32
2022-09-28T21:51:24.480Z,11.31
2022-09-28T21:53:50.877Z,11.24
2022-09-28T21:56:17.445Z,11.28
2022-09-28T21:58:43.911Z,11.30
2022-09-28T22:01:12.603Z,11.40
2022-09-28T22:03:39.116Z,11.21
2022-09-28T22:06:08.242Z,11.43
2022-09-28T22:08:36.007Z,11.53
2022-09-28T22:11:04.440Z,11.34
2022-09-28T22:13:33.186Z,11.35
2022-09-28T22:15:59.817Z,10.95
2022-09-28T22:18:29.142Z,11.38
2022-09-28T22:20:58.853Z,11.13
2022-09-28T22:23:26.664Z,10.77
2022-09-28T22:25:58.213Z,10.79
2022-09-28T22:28:24.780Z,11.02
2022-09-28T22:30:51.196Z,10.84
2022-09-28T22:33:17.795Z,11.20
2022-09-28T22:35:44.215Z,11.08
2022-09-28T22:38:10.610Z,11.36
2022-09-28T22:40:42.296Z,11.15
2022-09-28T22:43:08.725Z,11.27
2022-09-28T22:45:35.136Z,11.50
2022-09-28T22:48:01.912Z,11.39
2022-09-28T22:50:28.304Z,11.12
2022-09-28T22:52:54.699Z,11.07
2022-09-28T22:55:21.125Z,11.14
2022-09-28T22:57:48.893Z,11.34
2022-09-28T23:00:15.695Z,11.21
2022-09-28T23:02:42.176Z,11.17
2022-09-28T23:05:08.717Z,11.18
2022-09-28T23:07:35.153Z,11.44
2022-09-28T23:10:01.611Z,11.25
2022-09-28T23:12:28.028Z,11.28
2022-09-28T23:14:55.795Z,11.27
2022-09-28T23:17:22.192Z,11.52
2022-09-28T23:19:48.583Z,11.49
2022-09-28T23:22:16.390Z,11.42
2022-09-28T23:24:42.810Z,11.42
2022-09-28T23:27:09.193Z,10.90
2022-09-28T23:29:35.655Z,10.96
2022-09-28T23:32:03.429Z,10.80
2022-09-28T23:34:29.833Z,10.65
2022-09-28T23:36:56.558Z,11.08
2022-09-28T23:39:22.935Z,11.08
2022-09-28T23:41:49.317Z,10.87
2022-09-28T23:44:15.754Z,10.73
2022-09-28T23:46:42.179Z,10.90
2022-09-28T23:49:09.949Z,10.60
2022-09-28T23:51:36.408Z,10.67
2022-09-28T23:54:02.913Z,10.49
2022-09-28T23:56:29.320Z,9.93
2022-09-28T23:58:55.907Z,9.90
